sensor_id;sensor_type;location;lat;lon;timestamp;P1;durP1;ratioP1;P2;durP2;ratioP2
6288;SDS011;3177;49.880;8.836;2022-08-19T00:00:49;13.80;;;12.25;;
6288;SDS011;3177;49.880;8.836;2022-08-19T00:03:16;14.23;;;12.75;;
6288;SDS011;3177;49.880;8.836;2022-08-19T00:05:44;13.73;;;11.80;;
6288;SDS011;3177;49.880;8.836;2022-08-19T00:08:11;13.23;;;11.57;;
6288;SDS011;3177;49.880;8.836;2022-08-19T00:10:38;13.00;;;11.70;;
6288;SDS011;3177;49.880;8.836;2022-08-19T00:13:05;13.65;;;12.25;;
6288;SDS011;3177;49.880;8.836;2022-08-19T00:15:32;13.85;;;12.18;;
6288;SDS011;3177;49.880;8.836;2022-08-19T00:18:00;13.75;;;12.35;;
6288;SDS011;3177;49.880;8.836;2022-08-19T00:26:14;13.75;;;12.32;;
6288;SDS011;3177;49.880;8.836;2022-08-19T00:28:41;15.23;;;13.10;;
6288;SDS011;3177;49.880;8.836;2022-08-19T00:31:08;13.65;;;12.20;;
6288;SDS011;3177;49.880;8.836;2022-08-19T00:33:37;14.57;;;12.32;;
6288;SDS011;3177;49.880;8.836;2022-08-19T00:36:05;15.30;;;12.90;;
6288;SDS011;3177;49.880;8.836;2022-08-19T00:38:32;13.48;;;12.02;;
6288;SDS011;3177;49.880;8.836;2022-08-19T00:40:59;14.00;;;12.02;;
6288;SDS011;3177;49.880;8.836;2022-08-19T00:43:27;16.15;;;12.68;;
6288;SDS011;3177;49.880;8.836;2022-08-19T00:45:54;15.23;;;12.50;;
6288;SDS011;3177;49.880;8.836;2022-08-19T00:48:22;16.13;;;12.18;;
6288;SDS011;3177;49.880;8.836;2022-08-19T00:50:50;13.77;;;12.30;;
6288;SDS011;3177;49.880;8.836;2022-08-19T00:53:20;14.23;;;12.73;;
6288;SDS011;3177;49.880;8.836;2022-08-19T00:55:49;17.38;;;12.45;;
6288;SDS011;3177;49.880;8.836;2022-08-19T00:58:17;14.77;;;13.18;;
6288;SDS011;3177;49.880;8.836;2022-08-19T01:00:45;14.60;;;13.05;;
6288;SDS011;3177;49.880;8.836;2022-08-19T01:03:13;15.70;;;13.02;;
6288;SDS011;3177;49.880;8.836;2022-08-19T01:05:42;16.38;;;12.73;;
6288;SDS011;3177;49.880;8.836;2022-08-19T01:08:11;13.27;;;11.85;;
6288;SDS011;3177;49.880;8.836;2022-08-19T01:10:39;15.73;;;12.57;;
6288;SDS011;3177;49.880;8.836;2022-08-19T01:13:07;14.73;;;12.82;;
6288;SDS011;3177;49.880;8.836;2022-08-19T01:15:35;13.80;;;12.38;;
6288;SDS011;3177;49.880;8.836;2022-08-19T01:18:06;16.88;;;12.27;;
6288;SDS011;3177;49.880;8.836;2022-08-19T01:20:33;15.55;;;12.48;;
6288;SDS011;3177;49.880;8.836;2022-08-19T01:23:02;12.68;;;11.32;;
6288;SDS011;3177;49.880;8.836;2022-08-19T01:25:30;14.00;;;11.80;;
6288;SDS011;3177;49.880;8.836;2022-08-19T01:27:58;14.57;;;12.55;;
6288;SDS011;3177;49.880;8.836;2022-08-19T01:30:27;13.35;;;11.77;;
6288;SDS011;3177;49.880;8.836;2022-08-19T01:32:55;15.50;;;12.07;;
6288;SDS011;3177;49.880;8.836;2022-08-19T01:35:24;14.15;;;12.32;;
6288;SDS011;3177;49.880;8.836;2022-08-19T01:37:53;13.00;;;11.57;;
6288;SDS011;3177;49.880;8.836;2022-08-19T01:40:22;13.98;;;12.00;;
6288;SDS011;3177;49.880;8.836;2022-08-19T01:42:50;15.52;;;12.00;;
6288;SDS011;3177;49.880;8.836;2022-08-19T01:45:18;13.90;;;11.95;;
6288;SDS011;3177;49.880;8.836;2022-08-19T01:47:46;13.40;;;11.60;;
6288;SDS011;3177;49.880;8.836;2022-08-19T01:50:13;15.65;;;11.95;;
6288;SDS011;3177;49.880;8.836;2022-08-19T01:52:41;13.88;;;11.90;;
6288;SDS011;3177;49.880;8.836;2022-08-19T01:55:10;14.90;;;12.00;;
6288;SDS011;3177;49.880;8.836;2022-08-19T01:57:39;13.70;;;12.10;;
6288;SDS011;3177;49.880;8.836;2022-08-19T02:00:08;14.90;;;12.15;;
6288;SDS011;3177;49.880;8.836;2022-08-19T02:02:36;14.15;;;12.27;;
6288;SDS011;3177;49.880;8.836;2022-08-19T02:05:04;13.38;;;11.48;;
6288;SDS011;3177;49.880;8.836;2022-08-19T02:07:32;14.70;;;12.77;;
6288;SDS011;3177;49.880;8.836;2022-08-19T02:10:00;13.90;;;12.40;;
6288;SDS011;3177;49.880;8.836;2022-08-19T02:12:28;15.05;;;12.65;;
6288;SDS011;3177;49.880;8.836;2022-08-19T02:14:56;17.90;;;11.75;;
6288;SDS011;3177;49.880;8.836;2022-08-19T02:17:23;16.13;;;12.40;;
6288;SDS011;3177;49.880;8.836;2022-08-19T02:19:50;14.52;;;11.57;;
6288;SDS011;3177;49.880;8.836;2022-08-19T02:22:17;15.30;;;11.68;;
6288;SDS011;3177;49.880;8.836;2022-08-19T02:24:44;13.27;;;11.85;;
6288;SDS011;3177;49.880;8.836;2022-08-19T02:27:12;14.60;;;12.43;;
6288;SDS011;3177;49.880;8.836;2022-08-19T02:29:40;15.00;;;12.32;;
6288;SDS011;3177;49.880;8.836;2022-08-19T02:32:08;17.55;;;12.90;;
6288;SDS011;3177;49.880;8.836;2022-08-19T02:34:35;15.48;;;12.68;;
6288;SDS011;3177;49.880;8.836;2022-08-19T02:37:04;15.48;;;12.50;;
6288;SDS011;3177;49.880;8.836;2022-08-19T02:39:59;18.63;;;12.40;;
6288;SDS011;3177;49.880;8.836;2022-08-19T02:42:25;14.60;;;13.10;;
6288;SDS011;3177;49.880;8.836;2022-08-19T02:44:52;15.85;;;12.73;;
6288;SDS011;3177;49.880;8.836;2022-08-19T02:47:21;16.48;;;12.57;;
6288;SDS011;3177;49.880;8.836;2022-08-19T02:49:48;17.90;;;12.32;;
6288;SDS011;3177;49.880;8.836;2022-08-19T02:52:15;16.75;;;12.98;;
6288;SDS011;3177;49.880;8.836;2022-08-19T02:54:42;14.65;;;12.40;;
6288;SDS011;3177;49.880;8.836;2022-08-19T02:57:10;17.33;;;13.07;;
6288;SDS011;3177;49.880;8.836;2022-08-19T02:59:37;15.15;;;13.18;;
6288;SDS011;3177;49.880;8.836;2022-08-19T03:02:04;18.40;;;13.60;;
6288;SDS011;3177;49.880;8.836;2022-08-19T03:04:33;16.15;;;13.75;;
6288;SDS011;3177;49.880;8.836;2022-08-19T03:07:00;16.73;;;13.77;;
6288;SDS011;3177;49.880;8.836;2022-08-19T03:09:27;14.95;;;12.50;;
6288;SDS011;3177;49.880;8.836;2022-08-19T03:11:55;16.30;;;13.15;;
6288;SDS011;3177;49.880;8.836;2022-08-19T03:14:22;15.07;;;13.02;;
6288;SDS011;3177;49.880;8.836;2022-08-19T03:16:50;15.55;;;13.80;;
6288;SDS011;3177;49.880;8.836;2022-08-19T03:19:18;15.95;;;14.15;;
6288;SDS011;3177;49.880;8.836;2022-08-19T03:21:47;14.77;;;12.95;;
6288;SDS011;3177;49.880;8.836;2022-08-19T03:24:14;16.98;;;13.98;;
6288;SDS011;3177;49.880;8.836;2022-08-19T03:26:43;15.95;;;13.02;;
6288;SDS011;3177;49.880;8.836;2022-08-19T03:29:10;16.52;;;13.32;;
6288;SDS011;3177;49.880;8.836;2022-08-19T03:31:38;15.95;;;12.80;;
6288;SDS011;3177;49.880;8.836;2022-08-19T03:34:05;15.55;;;12.90;;
6288;SDS011;3177;49.880;8.836;2022-08-19T03:36:32;17.25;;;13.48;;
6288;SDS011;3177;49.880;8.836;2022-08-19T03:39:01;14.38;;;12.55;;
6288;SDS011;3177;49.880;8.836;2022-08-19T03:41:29;19.33;;;14.30;;
6288;SDS011;3177;49.880;8.836;2022-08-19T03:43:56;15.55;;;13.52;;
6288;SDS011;3177;49.880;8.836;2022-08-19T03:46:24;17.65;;;13.73;;
6288;SDS011;3177;49.880;8.836;2022-08-19T03:48:52;17.02;;;13.63;;
6288;SDS011;3177;49.880;8.836;2022-08-19T03:51:20;16.67;;;13.38;;
6288;SDS011;3177;49.880;8.836;2022-08-19T03:53:47;17.80;;;13.32;;
6288;SDS011;3177;49.880;8.836;2022-08-19T03:56:15;17.90;;;13.43;;
6288;SDS011;3177;49.880;8.836;2022-08-19T03:58:43;16.65;;;12.88;;
6288;SDS011;3177;49.880;8.836;2022-08-19T04:01:10;17.92;;;13.93;;
6288;SDS011;3177;49.880;8.836;2022-08-19T04:03:38;17.00;;;13.23;;
6288;SDS011;3177;49.880;8.836;2022-08-19T04:06:11;18.70;;;14.38;;
6288;SDS011;3177;49.880;8.836;2022-08-19T04:08:39;21.33;;;14.65;;
6288;SDS011;3177;49.880;8.836;2022-08-19T04:11:06;15.93;;;13.13;;
6288;SDS011;3177;49.880;8.836;2022-08-19T04:13:35;18.70;;;14.05;;
6288;SDS011;3177;49.880;8.836;2022-08-19T04:16:02;17.00;;;13.43;;
6288;SDS011;3177;49.880;8.836;2022-08-19T04:18:30;16.27;;;13.85;;
6288;SDS011;3177;49.880;8.836;2022-08-19T04:20:57;17.08;;;13.23;;
6288;SDS011;3177;49.880;8.836;2022-08-19T04:23:25;17.80;;;13.40;;
6288;SDS011;3177;49.880;8.836;2022-08-19T04:25:53;14.77;;;12.60;;
6288;SDS011;3177;49.880;8.836;2022-08-19T04:28:21;17.83;;;12.63;;
6288;SDS011;3177;49.880;8.836;2022-08-19T04:30:50;16.75;;;13.00;;
6288;SDS011;3177;49.880;8.836;2022-08-19T04:33:19;16.45;;;13.48;;
6288;SDS011;3177;49.880;8.836;2022-08-19T04:35:48;17.13;;;13.95;;
6288;SDS011;3177;49.880;8.836;2022-08-19T04:38:16;16.48;;;14.07;;
6288;SDS011;3177;49.880;8.836;2022-08-19T04:40:44;17.60;;;12.90;;
6288;SDS011;3177;49.880;8.836;2022-08-19T04:43:30;16.67;;;13.32;;
6288;SDS011;3177;49.880;8.836;2022-08-19T04:45:59;16.30;;;12.82;;
6288;SDS011;3177;49.880;8.836;2022-08-19T04:48:31;15.50;;;13.43;;
6288;SDS011;3177;49.880;8.836;2022-08-19T04:50:58;16.50;;;13.23;;
6288;SDS011;3177;49.880;8.836;2022-08-19T04:53:28;16.70;;;13.15;;
6288;SDS011;3177;49.880;8.836;2022-08-19T04:55:55;16.80;;;12.52;;
6288;SDS011;3177;49.880;8.836;2022-08-19T04:58:23;15.95;;;12.65;;
6288;SDS011;3177;49.880;8.836;2022-08-19T05:00:50;18.55;;;13.30;;
6288;SDS011;3177;49.880;8.836;2022-08-19T05:03:19;14.73;;;12.23;;
6288;SDS011;3177;49.880;8.836;2022-08-19T05:05:47;14.90;;;12.13;;
6288;SDS011;3177;49.880;8.836;2022-08-19T05:08:15;14.50;;;12.63;;
6288;SDS011;3177;49.880;8.836;2022-08-19T05:10:44;16.98;;;13.52;;
6288;SDS011;3177;49.880;8.836;2022-08-19T05:13:12;17.15;;;12.18;;
6288;SDS011;3177;49.880;8.836;2022-08-19T05:15:39;16.33;;;12.02;;
6288;SDS011;3177;49.880;8.836;2022-08-19T05:18:06;17.50;;;12.57;;
6288;SDS011;3177;49.880;8.836;2022-08-19T05:20:53;16.92;;;12.25;;
6288;SDS011;3177;49.880;8.836;2022-08-19T05:23:38;16.70;;;12.07;;
6288;SDS011;3177;49.880;8.836;2022-08-19T05:26:05;13.63;;;11.82;;
6288;SDS011;3177;49.880;8.836;2022-08-19T05:28:34;14.75;;;12.57;;
6288;SDS011;3177;49.880;8.836;2022-08-19T05:31:01;15.02;;;11.98;;
6288;SDS011;3177;49.880;8.836;2022-08-19T05:33:28;14.55;;;11.68;;
6288;SDS011;3177;49.880;8.836;2022-08-19T05:35:58;16.65;;;11.52;;
6288;SDS011;3177;49.880;8.836;2022-08-19T05:38:25;17.17;;;11.50;;
6288;SDS011;3177;49.880;8.836;2022-08-19T05:40:52;16.55;;;11.32;;
6288;SDS011;3177;49.880;8.836;2022-08-19T05:43:19;15.77;;;11.35;;
6288;SDS011;3177;49.880;8.836;2022-08-19T05:45:46;14.95;;;11.32;;
6288;SDS011;3177;49.880;8.836;2022-08-19T05:48:15;14.98;;;12.18;;
6288;SDS011;3177;49.880;8.836;2022-08-19T05:50:45;13.77;;;12.13;;
6288;SDS011;3177;49.880;8.836;2022-08-19T05:53:16;15.02;;;11.32;;
6288;SDS011;3177;49.880;8.836;2022-08-19T05:55:43;18.27;;;12.85;;
6288;SDS011;3177;49.880;8.836;2022-08-19T05:58:10;15.57;;;12.68;;
6288;SDS011;3177;49.880;8.836;2022-08-19T06:00:38;19.35;;;14.20;;
6288;SDS011;3177;49.880;8.836;2022-08-19T06:03:05;16.15;;;12.98;;
6288;SDS011;3177;49.880;8.836;2022-08-19T06:05:33;17.27;;;12.60;;
6288;SDS011;3177;49.880;8.836;2022-08-19T06:08:00;20.42;;;12.90;;
6288;SDS011;3177;49.880;8.836;2022-08-19T06:10:28;16.42;;;13.55;;
6288;SDS011;3177;49.880;8.836;2022-08-19T06:12:56;14.85;;;12.30;;
6288;SDS011;3177;49.880;8.836;2022-08-19T06:15:23;15.48;;;12.65;;
6288;SDS011;3177;49.880;8.836;2022-08-19T06:17:52;14.60;;;11.63;;
6288;SDS011;3177;49.880;8.836;2022-08-19T06:20:20;11.82;;;10.60;;
6288;SDS011;3177;49.880;8.836;2022-08-19T06:22:47;12.98;;;10.73;;
6288;SDS011;3177;49.880;8.836;2022-08-19T06:25:16;17.75;;;11.15;;
6288;SDS011;3177;49.880;8.836;2022-08-19T06:27:44;12.05;;;10.82;;
6288;SDS011;3177;49.880;8.836;2022-08-19T06:30:12;12.88;;;10.35;;
6288;SDS011;3177;49.880;8.836;2022-08-19T06:32:39;13.68;;;10.60;;
6288;SDS011;3177;49.880;8.836;2022-08-19T06:35:07;14.65;;;10.88;;
6288;SDS011;3177;49.880;8.836;2022-08-19T06:37:34;13.23;;;10.82;;
6288;SDS011;3177;49.880;8.836;2022-08-19T06:40:03;11.13;;;9.63;;
6288;SDS011;3177;49.880;8.836;2022-08-19T06:42:30;12.27;;;9.98;;
6288;SDS011;3177;49.880;8.836;2022-08-19T06:44:59;13.27;;;10.40;;
6288;SDS011;3177;49.880;8.836;2022-08-19T06:47:28;10.95;;;9.82;;
6288;SDS011;3177;49.880;8.836;2022-08-19T06:49:55;14.30;;;10.48;;
6288;SDS011;3177;49.880;8.836;2022-08-19T06:52:25;12.88;;;9.85;;
6288;SDS011;3177;49.880;8.836;2022-08-19T06:54:52;11.18;;;9.25;;
6288;SDS011;3177;49.880;8.836;2022-08-19T06:57:21;13.15;;;9.10;;
6288;SDS011;3177;49.880;8.836;2022-08-19T06:59:48;10.75;;;9.73;;
6288;SDS011;3177;49.880;8.836;2022-08-19T07:02:16;12.55;;;9.55;;
6288;SDS011;3177;49.880;8.836;2022-08-19T07:04:43;12.27;;;9.10;;
6288;SDS011;3177;49.880;8.836;2022-08-19T07:07:11;11.30;;;9.35;;
6288;SDS011;3177;49.880;8.836;2022-08-19T07:09:39;12.70;;;9.70;;
6288;SDS011;3177;49.880;8.836;2022-08-19T07:12:08;10.82;;;9.60;;
6288;SDS011;3177;49.880;8.836;2022-08-19T07:14:35;10.38;;;9.35;;
6288;SDS011;3177;49.880;8.836;2022-08-19T07:17:03;10.73;;;9.02;;
6288;SDS011;3177;49.880;8.836;2022-08-19T07:19:32;13.25;;;9.15;;
6288;SDS011;3177;49.880;8.836;2022-08-19T07:22:00;10.80;;;8.68;;
6288;SDS011;3177;49.880;8.836;2022-08-19T07:24:28;11.52;;;8.75;;
6288;SDS011;3177;49.880;8.836;2022-08-19T07:26:56;13.98;;;9.27;;
6288;SDS011;3177;49.880;8.836;2022-08-19T07:29:25;10.07;;;8.65;;
6288;SDS011;3177;49.880;8.836;2022-08-19T07:31:52;9.85;;;8.85;;
6288;SDS011;3177;49.880;8.836;2022-08-19T07:34:21;11.68;;;8.48;;
6288;SDS011;3177;49.880;8.836;2022-08-19T07:36:49;16.77;;;8.60;;
6288;SDS011;3177;49.880;8.836;2022-08-19T07:39:18;11.65;;;8.07;;
6288;SDS011;3177;49.880;8.836;2022-08-19T07:41:45;12.15;;;8.38;;
6288;SDS011;3177;49.880;8.836;2022-08-19T07:44:13;10.35;;;8.05;;
6288;SDS011;3177;49.880;8.836;2022-08-19T07:46:44;9.27;;;7.50;;
6288;SDS011;3177;49.880;8.836;2022-08-19T07:49:12;8.77;;;7.95;;
6288;SDS011;3177;49.880;8.836;2022-08-19T07:51:44;11.50;;;8.10;;
6288;SDS011;3177;49.880;8.836;2022-08-19T07:54:13;10.98;;;7.47;;
6288;SDS011;3177;49.880;8.836;2022-08-19T07:56:40;8.35;;;7.40;;
6288;SDS011;3177;49.880;8.836;2022-08-19T07:59:07;8.30;;;7.43;;
6288;SDS011;3177;49.880;8.836;2022-08-19T08:01:34;8.60;;;7.60;;
6288;SDS011;3177;49.880;8.836;2022-08-19T08:04:01;10.13;;;7.45;;
6288;SDS011;3177;49.880;8.836;2022-08-19T08:06:46;7.97;;;6.80;;
6288;SDS011;3177;49.880;8.836;2022-08-19T08:09:33;9.32;;;7.15;;
6288;SDS011;3177;49.880;8.836;2022-08-19T08:12:02;13.32;;;7.22;;
6288;SDS011;3177;49.880;8.836;2022-08-19T08:14:32;9.55;;;6.47;;
6288;SDS011;3177;49.880;8.836;2022-08-19T08:17:00;7.13;;;6.43;;
6288;SDS011;3177;49.880;8.836;2022-08-19T08:19:27;6.20;;;5.68;;
6288;SDS011;3177;49.880;8.836;2022-08-19T08:21:56;7.15;;;5.78;;
6288;SDS011;3177;49.880;8.836;2022-08-19T08:24:23;6.10;;;5.25;;
6288;SDS011;3177;49.880;8.836;2022-08-19T08:26:51;11.13;;;5.53;;
6288;SDS011;3177;49.880;8.836;2022-08-19T08:29:20;5.30;;;4.75;;
6288;SDS011;3177;49.880;8.836;2022-08-19T08:31:47;5.63;;;5.00;;
6288;SDS011;3177;49.880;8.836;2022-08-19T08:34:14;7.18;;;5.30;;
6288;SDS011;3177;49.880;8.836;2022-08-19T08:36:43;6.80;;;4.30;;
6288;SDS011;3177;49.880;8.836;2022-08-19T08:39:11;6.07;;;5.47;;
6288;SDS011;3177;49.880;8.836;2022-08-19T08:41:40;5.88;;;4.93;;
6288;SDS011;3177;49.880;8.836;2022-08-19T08:44:15;7.72;;;4.63;;
6288;SDS011;3177;49.880;8.836;2022-08-19T08:46:45;5.38;;;4.18;;
6288;SDS011;3177;49.880;8.836;2022-08-19T08:49:17;5.70;;;5.20;;
6288;SDS011;3177;49.880;8.836;2022-08-19T08:51:47;5.03;;;4.57;;
6288;SDS011;3177;49.880;8.836;2022-08-19T08:54:17;4.95;;;4.22;;
6288;SDS011;3177;49.880;8.836;2022-08-19T08:56:44;5.90;;;4.68;;
6288;SDS011;3177;49.880;8.836;2022-08-19T08:59:16;5.55;;;4.88;;
6288;SDS011;3177;49.880;8.836;2022-08-19T09:01:46;7.03;;;4.68;;
6288;SDS011;3177;49.880;8.836;2022-08-19T09:04:13;3.92;;;3.60;;
6288;SDS011;3177;49.880;8.836;2022-08-19T09:06:43;5.47;;;3.92;;
6288;SDS011;3177;49.880;8.836;2022-08-19T09:09:17;5.15;;;3.75;;
6288;SDS011;3177;49.880;8.836;2022-08-19T09:11:50;4.68;;;4.13;;
6288;SDS011;3177;49.880;8.836;2022-08-19T09:14:28;4.43;;;4.03;;
6288;SDS011;3177;49.880;8.836;2022-08-19T09:16:58;4.43;;;3.58;;
6288;SDS011;3177;49.880;8.836;2022-08-19T09:19:28;3.85;;;3.47;;
6288;SDS011;3177;49.880;8.836;2022-08-19T09:21:55;5.07;;;3.80;;
6288;SDS011;3177;49.880;8.836;2022-08-19T09:24:25;4.90;;;3.67;;
6288;SDS011;3177;49.880;8.836;2022-08-19T09:26:52;5.03;;;3.30;;
6288;SDS011;3177;49.880;8.836;2022-08-19T09:29:19;3.90;;;3.53;;
6288;SDS011;3177;49.880;8.836;2022-08-19T09:31:48;3.80;;;3.50;;
6288;SDS011;3177;49.880;8.836;2022-08-19T09:34:15;3.88;;;3.50;;
6288;SDS011;3177;49.880;8.836;2022-08-19T09:36:44;3.33;;;3.05;;
6288;SDS011;3177;49.880;8.836;2022-08-19T09:39:11;4.35;;;3.13;;
6288;SDS011;3177;49.880;8.836;2022-08-19T09:41:40;3.10;;;2.83;;
6288;SDS011;3177;49.880;8.836;2022-08-19T09:44:07;3.63;;;3.22;;
6288;SDS011;3177;49.880;8.836;2022-08-19T09:46:37;4.75;;;3.38;;
6288;SDS011;3177;49.880;8.836;2022-08-19T09:49:05;3.33;;;3.10;;
6288;SDS011;3177;49.880;8.836;2022-08-19T09:51:32;4.85;;;3.25;;
6288;SDS011;3177;49.880;8.836;2022-08-19T09:54:00;3.90;;;3.33;;
6288;SDS011;3177;49.880;8.836;2022-08-19T09:56:28;3.47;;;3.17;;
6288;SDS011;3177;49.880;8.836;2022-08-19T09:58:57;4.80;;;3.88;;
6288;SDS011;3177;49.880;8.836;2022-08-19T10:01:26;9.98;;;3.92;;
6288;SDS011;3177;49.880;8.836;2022-08-19T10:03:55;3.83;;;3.10;;
6288;SDS011;3177;49.880;8.836;2022-08-19T10:06:26;3.35;;;3.05;;
6288;SDS011;3177;49.880;8.836;2022-08-19T10:08:55;3.53;;;3.00;;
6288;SDS011;3177;49.880;8.836;2022-08-19T10:11:23;4.65;;;3.30;;
6288;SDS011;3177;49.880;8.836;2022-08-19T10:13:51;3.40;;;3.10;;
6288;SDS011;3177;49.880;8.836;2022-08-19T10:16:19;3.38;;;3.08;;
6288;SDS011;3177;49.880;8.836;2022-08-19T10:18:47;3.15;;;2.95;;
6288;SDS011;3177;49.880;8.836;2022-08-19T10:21:14;3.35;;;3.05;;
6288;SDS011;3177;49.880;8.836;2022-08-19T10:23:44;4.70;;;2.78;;
6288;SDS011;3177;49.880;8.836;2022-08-19T10:26:12;3.10;;;2.80;;
6288;SDS011;3177;49.880;8.836;2022-08-19T10:28:40;3.15;;;2.80;;
6288;SDS011;3177;49.880;8.836;2022-08-19T10:31:08;3.45;;;3.15;;
6288;SDS011;3177;49.880;8.836;2022-08-19T10:33:36;3.20;;;2.60;;
6288;SDS011;3177;49.880;8.836;2022-08-19T10:36:04;4.25;;;2.70;;
6288;SDS011;3177;49.880;8.836;2022-08-19T10:38:33;3.00;;;2.70;;
6288;SDS011;3177;49.880;8.836;2022-08-19T10:41:13;3.38;;;2.85;;
6288;SDS011;3177;49.880;8.836;2022-08-19T10:43:50;3.95;;;2.90;;
6288;SDS011;3177;49.880;8.836;2022-08-19T10:46:21;4.10;;;2.97;;
6288;SDS011;3177;49.880;8.836;2022-08-19T10:48:48;3.08;;;2.70;;
6288;SDS011;3177;49.880;8.836;2022-08-19T10:51:21;3.03;;;2.72;;
6288;SDS011;3177;49.880;8.836;2022-08-19T10:54:14;3.13;;;2.60;;
6288;SDS011;3177;49.880;8.836;2022-08-19T10:56:43;3.28;;;2.78;;
6288;SDS011;3177;49.880;8.836;2022-08-19T10:59:20;3.72;;;2.78;;
6288;SDS011;3177;49.880;8.836;2022-08-19T11:01:47;2.83;;;2.63;;
6288;SDS011;3177;49.880;8.836;2022-08-19T11:04:15;3.30;;;3.00;;
6288;SDS011;3177;49.880;8.836;2022-08-19T11:06:43;5.13;;;2.83;;
6288;SDS011;3177;49.880;8.836;2022-08-19T11:09:12;2.90;;;2.60;;
6288;SDS011;3177;49.880;8.836;2022-08-19T11:11:47;2.88;;;2.67;;
6288;SDS011;3177;49.880;8.836;2022-08-19T11:14:15;4.82;;;3.00;;
6288;SDS011;3177;49.880;8.836;2022-08-19T11:16:43;4.03;;;3.10;;
6288;SDS011;3177;49.880;8.836;2022-08-19T11:19:11;2.90;;;2.60;;
6288;SDS011;3177;49.880;8.836;2022-08-19T11:21:42;2.75;;;2.50;;
6288;SDS011;3177;49.880;8.836;2022-08-19T11:24:10;3.60;;;2.92;;
6288;SDS011;3177;49.880;8.836;2022-08-19T11:26:43;3.65;;;3.30;;
6288;SDS011;3177;49.880;8.836;2022-08-19T11:29:12;3.67;;;3.00;;
6288;SDS011;3177;49.880;8.836;2022-08-19T11:31:40;3.78;;;3.10;;
6288;SDS011;3177;49.880;8.836;2022-08-19T11:34:08;5.07;;;2.83;;
6288;SDS011;3177;49.880;8.836;2022-08-19T11:36:37;3.20;;;2.90;;
6288;SDS011;3177;49.880;8.836;2022-08-19T11:39:05;3.42;;;2.97;;
6288;SDS011;3177;49.880;8.836;2022-08-19T11:41:32;3.83;;;3.45;;
6288;SDS011;3177;49.880;8.836;2022-08-19T11:43:59;3.35;;;3.13;;
6288;SDS011;3177;49.880;8.836;2022-08-19T11:46:29;3.40;;;3.10;;
6288;SDS011;3177;49.880;8.836;2022-08-19T11:48:57;4.22;;;2.95;;
6288;SDS011;3177;49.880;8.836;2022-08-19T11:51:25;7.88;;;3.28;;
6288;SDS011;3177;49.880;8.836;2022-08-19T11:53:53;3.40;;;3.10;;
6288;SDS011;3177;49.880;8.836;2022-08-19T11:56:21;5.93;;;3.08;;
6288;SDS011;3177;49.880;8.836;2022-08-19T11:58:49;3.40;;;3.10;;
6288;SDS011;3177;49.880;8.836;2022-08-19T12:01:18;4.35;;;3.35;;
6288;SDS011;3177;49.880;8.836;2022-08-19T12:03:47;3.40;;;3.20;;
6288;SDS011;3177;49.880;8.836;2022-08-19T12:06:15;4.32;;;3.50;;
6288;SDS011;3177;49.880;8.836;2022-08-19T12:08:43;3.80;;;3.50;;
6288;SDS011;3177;49.880;8.836;2022-08-19T12:11:10;4.22;;;3.92;;
6288;SDS011;3177;49.880;8.836;2022-08-19T12:13:39;3.88;;;3.58;;
6288;SDS011;3177;49.880;8.836;2022-08-19T12:16:07;4.47;;;3.88;;
6288;SDS011;3177;49.880;8.836;2022-08-19T12:18:35;6.60;;;3.83;;
6288;SDS011;3177;49.880;8.836;2022-08-19T12:21:04;5.28;;;3.78;;
6288;SDS011;3177;49.880;8.836;2022-08-19T12:23:31;4.50;;;4.10;;
6288;SDS011;3177;49.880;8.836;2022-08-19T12:25:58;4.28;;;3.88;;
6288;SDS011;3177;49.880;8.836;2022-08-19T12:28:25;5.38;;;4.25;;
6288;SDS011;3177;49.880;8.836;2022-08-19T12:30:52;4.85;;;4.45;;
6288;SDS011;3177;49.880;8.836;2022-08-19T12:33:20;6.68;;;4.55;;
6288;SDS011;3177;49.880;8.836;2022-08-19T12:35:49;4.93;;;4.47;;
6288;SDS011;3177;49.880;8.836;2022-08-19T12:38:18;5.15;;;4.75;;
6288;SDS011;3177;49.880;8.836;2022-08-19T12:40:45;4.88;;;4.47;;
6288;SDS011;3177;49.880;8.836;2022-08-19T12:43:12;5.15;;;4.53;;
6288;SDS011;3177;49.880;8.836;2022-08-19T12:45:40;4.63;;;4.32;;
6288;SDS011;3177;49.880;8.836;2022-08-19T12:48:08;5.00;;;4.15;;
6288;SDS011;3177;49.880;8.836;2022-08-19T12:50:35;7.80;;;4.68;;
6288;SDS011;3177;49.880;8.836;2022-08-19T12:53:02;5.57;;;4.80;;
6288;SDS011;3177;49.880;8.836;2022-08-19T12:55:31;5.15;;;4.70;;
6288;SDS011;3177;49.880;8.836;2022-08-19T12:57:58;5.38;;;4.88;;
6288;SDS011;3177;49.880;8.836;2022-08-19T13:00:26;5.55;;;5.13;;
6288;SDS011;3177;49.880;8.836;2022-08-19T13:02:54;5.75;;;5.30;;
6288;SDS011;3177;49.880;8.836;2022-08-19T13:05:21;6.15;;;5.65;;
6288;SDS011;3177;49.880;8.836;2022-08-19T13:07:49;7.10;;;6.40;;
6288;SDS011;3177;49.880;8.836;2022-08-19T13:10:18;6.18;;;5.68;;
6288;SDS011;3177;49.880;8.836;2022-08-19T13:12:48;6.55;;;5.63;;
6288;SDS011;3177;49.880;8.836;2022-08-19T13:15:15;6.53;;;5.93;;
6288;SDS011;3177;49.880;8.836;2022-08-19T13:17:45;7.30;;;6.60;;
6288;SDS011;3177;49.880;8.836;2022-08-19T13:20:13;7.38;;;6.28;;
6288;SDS011;3177;49.880;8.836;2022-08-19T13:22:41;6.93;;;6.30;;
6288;SDS011;3177;49.880;8.836;2022-08-19T13:25:09;6.60;;;6.00;;
6288;SDS011;3177;49.880;8.836;2022-08-19T13:27:37;7.07;;;6.15;;
6288;SDS011;3177;49.880;8.836;2022-08-19T13:30:08;6.57;;;5.97;;
6288;SDS011;3177;49.880;8.836;2022-08-19T13:32:53;6.68;;;6.18;;
6288;SDS011;3177;49.880;8.836;2022-08-19T13:35:41;6.35;;;5.82;;
6288;SDS011;3177;49.880;8.836;2022-08-19T13:38:09;6.22;;;5.63;;
6288;SDS011;3177;49.880;8.836;2022-08-19T13:40:36;6.50;;;5.82;;
6288;SDS011;3177;49.880;8.836;2022-08-19T13:43:04;6.78;;;6.18;;
6288;SDS011;3177;49.880;8.836;2022-08-19T13:45:34;6.05;;;5.60;;
6288;SDS011;3177;49.880;8.836;2022-08-19T13:48:02;6.22;;;5.68;;
6288;SDS011;3177;49.880;8.836;2022-08-19T13:50:31;5.80;;;5.35;;
6288;SDS011;3177;49.880;8.836;2022-08-19T13:52:59;6.00;;;5.50;;
6288;SDS011;3177;49.880;8.836;2022-08-19T13:55:27;6.55;;;5.82;;
6288;SDS011;3177;49.880;8.836;2022-08-19T13:57:55;6.40;;;5.80;;
6288;SDS011;3177;49.880;8.836;2022-08-19T14:00:24;5.60;;;5.20;;
6288;SDS011;3177;49.880;8.836;2022-08-19T14:02:54;4.97;;;4.35;;
6288;SDS011;3177;49.880;8.836;2022-08-19T14:05:21;5.25;;;4.85;;
6288;SDS011;3177;49.880;8.836;2022-08-19T14:07:50;5.40;;;4.90;;
6288;SDS011;3177;49.880;8.836;2022-08-19T14:10:17;5.13;;;4.60;;
6288;SDS011;3177;49.880;8.836;2022-08-19T14:12:46;4.90;;;4.50;;
6288;SDS011;3177;49.880;8.836;2022-08-19T14:15:16;5.05;;;4.65;;
6288;SDS011;3177;49.880;8.836;2022-08-19T14:17:44;4.97;;;4.57;;
6288;SDS011;3177;49.880;8.836;2022-08-19T14:20:14;5.30;;;4.90;;
6288;SDS011;3177;49.880;8.836;2022-08-19T14:22:42;4.88;;;4.50;;
6288;SDS011;3177;49.880;8.836;2022-08-19T14:25:09;5.30;;;4.80;;
6288;SDS011;3177;49.880;8.836;2022-08-19T14:27:37;6.07;;;4.22;;
6288;SDS011;3177;49.880;8.836;2022-08-19T14:30:06;4.75;;;4.35;;
6288;SDS011;3177;49.880;8.836;2022-08-19T14:32:34;5.18;;;4.60;;
6288;SDS011;3177;49.880;8.836;2022-08-19T14:35:01;4.82;;;4.43;;
6288;SDS011;3177;49.880;8.836;2022-08-19T14:37:30;5.32;;;4.82;;
6288;SDS011;3177;49.880;8.836;2022-08-19T14:39:57;5.15;;;4.75;;
6288;SDS011;3177;49.880;8.836;2022-08-19T14:42:24;4.47;;;4.18;;
6288;SDS011;3177;49.880;8.836;2022-08-19T14:44:51;6.65;;;4.32;;
6288;SDS011;3177;49.880;8.836;2022-08-19T14:47:18;4.82;;;4.18;;
6288;SDS011;3177;49.880;8.836;2022-08-19T14:49:45;5.00;;;4.50;;
6288;SDS011;3177;49.880;8.836;2022-08-19T14:52:12;5.47;;;4.05;;
6288;SDS011;3177;49.880;8.836;2022-08-19T14:54:41;4.88;;;4.35;;
6288;SDS011;3177;49.880;8.836;2022-08-19T14:57:11;4.55;;;3.80;;
6288;SDS011;3177;49.880;8.836;2022-08-19T14:59:40;4.20;;;3.90;;
6288;SDS011;3177;49.880;8.836;2022-08-19T15:02:07;4.43;;;4.03;;
6288;SDS011;3177;49.880;8.836;2022-08-19T15:04:34;4.05;;;3.75;;
6288;SDS011;3177;49.880;8.836;2022-08-19T15:07:01;4.07;;;3.78;;
6288;SDS011;3177;49.880;8.836;2022-08-19T15:09:29;4.60;;;3.42;;
6288;SDS011;3177;49.880;8.836;2022-08-19T15:11:58;4.03;;;3.70;;
6288;SDS011;3177;49.880;8.836;2022-08-19T15:14:26;3.67;;;3.33;;
6288;SDS011;3177;49.880;8.836;2022-08-19T15:16:58;3.88;;;3.45;;